Time;durP1;ratioP1;P1;durP2;ratioP2;P2;SDS_P1;SDS_P2;PMS_P1;PMS_P2;Temp;Humidity;BMP_temperature;BMP_pressure;BME280_temperature;BME280_humidity;BME280_pressure;Samples;Min_cycle;Max_cycle;Signal;HPM_P1;HPM_P2
2022/12/23 00:00:58;;;;;;;11.10;1.50;;;;;;;11.39;71.50;98077.75;5135859;28;20189;-72
2022/12/23 00:03:49;;;;;;;11.20;1.33;;;;;;;11.54;71.19;98070.72;5128710;28;20048;-73
2022/12/23 00:06:40;;;;;;;6.85;0.88;;;;;;;11.34;71.99;98069.47;5122957;29;20063;-73
2022/12/23 00:09:30;;;;;;;11.95;1.70;;;;;;;11.56;71.88;98065.25;5122855;28;20102;-73
2022/12/23 00:15:29;;;;;;;5.43;1.10;;;;;;;11.60;70.89;98070.03;5127973;28;20513;-73
2022/12/23 00:18:20;;;;;;;2.95;0.80;;;;;;;11.46;72.01;98068.13;5128245;28;20066;-73
2022/12/23 00:21:12;;;;;;;4.22;0.82;;;;;;;11.56;72.02;98066.09;5121663;29;20074;-73
2022/12/23 00:24:03;;;;;;;6.90;1.10;;;;;;;11.80;71.02;98062.47;5120031;28;20053;-73
2022/12/23 00:26:53;;;;;;;5.57;0.90;;;;;;;11.84;71.29;98054.97;5132068;28;20065;-73
2022/12/23 00:29:43;;;;;;;2.95;1.10;;;;;;;11.83;71.01;98051.50;5124849;28;20126;-73
2022/12/23 00:32:33;;;;;;;6.85;1.00;;;;;;;11.66;72.25;98050.75;5134801;28;20077;-73
2022/12/23 00:35:24;;;;;;;8.82;1.10;;;;;;;11.52;72.69;98054.97;5123764;28;20417;-73
2022/12/23 00:38:16;;;;;;;3.58;0.98;;;;;;;11.74;71.67;98042.75;5123510;28;20226;-73
2022/12/23 00:44:24;;;;;;;5.95;1.10;;;;;;;11.55;72.99;98056.44;5122581;28;20117;-72
2022/12/23 00:49:40;;;;;;;3.33;0.88;;;;;;;11.63;72.62;98059.06;5124676;28;20114;-72
2022/12/23 00:50:24;;;;;;;2.85;0.90;;;;;;;11.71;72.84;98060.84;5123286;29;20087;-72
2022/12/23 00:53:13;;;;;;;4.68;1.00;;;;;;;11.66;72.74;98065.88;5121924;28;20133;-73
2022/12/23 00:56:04;;;;;;;2.78;0.65;;;;;;;11.66;72.92;98066.69;5122961;28;20517;-72
2022/12/23 00:58:54;;;;;;;3.83;0.73;;;;;;;11.70;72.34;98069.84;5121847;28;20573;-72
2022/12/23 01:08:09;;;;;;;2.45;0.60;;;;;;;11.75;72.68;98068.31;5125517;28;20075;-73
2022/12/23 01:11:08;;;;;;;6.22;0.68;;;;;;;11.75;72.79;98060.34;5119783;28;20051;-72
2022/12/23 01:13:58;;;;;;;1.42;0.70;;;;;;;11.83;72.70;98082.56;5119121;28;20102;-72
2022/12/23 01:16:48;;;;;;;3.08;0.73;;;;;;;11.91;72.53;98078.03;5128316;28;20134;-73
2022/12/23 01:19:38;;;;;;;4.55;0.88;;;;;;;11.94;71.49;98088.31;5122540;28;20131;-72
2022/12/23 01:22:28;;;;;;;5.53;0.60;;;;;;;11.99;71.63;98096.59;5128661;28;20133;-72
2022/12/23 01:25:19;;;;;;;1.58;0.75;;;;;;;12.00;71.41;98100.06;5126453;28;20051;-73
2022/12/23 01:28:09;;;;;;;3.17;0.90;;;;;;;11.89;72.11;98084.53;5122050;28;20418;-72
2022/12/23 01:31:01;;;;;;;6.82;1.27;;;;;;;12.18;70.72;98079.34;5123831;28;20102;-72
2022/12/23 01:33:51;;;;;;;2.60;0.77;;;;;;;12.25;71.03;98089.28;5135816;28;20568;-72
2022/12/23 01:36:42;;;;;;;3.05;0.70;;;;;;;12.28;70.82;98091.59;5128207;28;20049;-72
2022/12/23 01:39:33;;;;;;;5.20;0.82;;;;;;;12.26;71.38;98096.28;5125462;28;20070;-72
2022/12/23 01:45:32;;;;;;;3.45;0.70;;;;;;;12.44;71.80;98110.91;5124044;28;20156;-72
2022/12/23 01:48:26;;;;;;;3.22;0.85;;;;;;;12.06;72.87;98117.97;5133723;28;20054;-72
2022/12/23 01:51:28;;;;;;;1.35;0.60;;;;;;;12.31;72.41;98101.88;5124193;28;20186;-73
2022/12/23 01:54:19;;;;;;;0.98;0.57;;;;;;;12.47;71.51;98104.41;5127901;28;20051;-72
2022/12/23 01:57:10;;;;;;;1.38;0.65;;;;;;;12.62;70.74;98107.97;5123721;28;20629;-72
2022/12/23 02:09:38;;;;;;;2.63;0.50;;;;;;;12.39;72.43;98137.22;5119059;28;20066;-72
2022/12/23 02:12:35;;;;;;;0.50;0.40;;;;;;;12.40;72.28;98140.69;5114777;28;20059;-72
2022/12/23 02:19:13;;;;;;;0.50;0.40;;;;;;;12.45;72.95;98149.00;5120232;28;20051;-73
2022/12/23 02:22:17;;;;;;;2.10;0.32;;;;;;;12.43;72.18;98145.66;5122513;28;20062;-71
2022/12/23 02:25:37;;;;;;;1.83;0.50;;;;;;;12.38;72.57;98148.00;5119177;28;20110;-76
2022/12/23 02:28:52;;;;;;;0.82;0.60;;;;;;;12.54;72.32;98171.84;5123788;28;20073;-73
2022/12/23 02:32:09;;;;;;;5.00;0.70;;;;;;;12.49;72.37;98166.25;5121459;28;20690;-73
2022/12/23 02:35:30;;;;;;;2.10;0.63;;;;;;;12.55;73.01;98162.88;5124493;28;20110;-74
2022/12/23 02:38:39;;;;;;;2.45;0.45;;;;;;;12.57;72.95;98187.44;5115952;28;20071;-74
2022/12/23 02:41:41;;;;;;;0.93;0.20;;;;;;;12.24;76.74;98178.84;5122543;28;20565;-73
2022/12/23 02:44:40;;;;;;;0.52;0.30;;;;;;;12.65;75.82;98182.09;5130331;28;20050;-74
2022/12/23 02:47:39;;;;;;;4.60;0.38;;;;;;;12.27;78.26;98177.66;5120475;28;20066;-73
2022/12/23 02:50:34;;;;;;;0.50;0.30;;;;;;;12.66;76.70;98181.06;5105583;28;20083;-72
2022/12/23 02:53:36;;;;;;;2.15;0.30;;;;;;;12.01;79.38;98173.47;5117240;28;20047;-72
2022/12/23 02:56:31;;;;;;;1.90;0.20;;;;;;;12.44;78.15;98181.88;5122210;28;20059;-72
2022/12/23 02:59:34;;;;;;;0.53;0.30;;;;;;;12.71;76.70;98177.88;5117615;28;20125;-74
2022/12/23 03:02:25;;;;;;;1.85;0.30;;;;;;;12.78;76.22;98189.47;5117051;28;20313;-73
2022/12/23 03:05:25;;;;;;;0.35;0.20;;;;;;;12.63;77.40;98197.38;5127888;28;20058;-73
2022/12/23 03:08:22;;;;;;;0.20;0.10;;;;;;;12.98;75.30;98208.44;5121826;28;20516;-73
2022/12/23 03:11:15;;;;;;;0.30;0.20;;;;;;;12.77;76.43;98200.28;5136640;28;20123;-73
2022/12/23 03:14:15;;;;;;;0.10;0.10;;;;;;;13.00;75.41;98206.41;5120140;28;20122;-74
2022/12/23 03:17:35;;;;;;;0.10;0.10;;;;;;;12.97;75.81;98206.78;5121310;28;21536;-73
2022/12/23 03:20:37;;;;;;;0.23;0.10;;;;;;;12.97;76.15;98212.09;5123963;28;20510;-73
2022/12/23 03:23:41;;;;;;;0.10;0.10;;;;;;;12.92;75.24;98209.16;5123926;28;20373;-73
2022/12/23 03:26:39;;;;;;;0.52;0.20;;;;;;;13.24;74.38;98209.88;5098614;28;20418;-73
2022/12/23 03:29:48;;;;;;;0.08;0.08;;;;;;;12.84;76.45;98211.88;5119521;28;20141;-73
2022/12/23 03:32:52;;;;;;;0.32;0.15;;;;;;;13.03;75.30;98224.69;5129287;28;20047;-73
2022/12/23 03:35:48;;;;;;;1.33;0.22;;;;;;;13.08;74.13;98225.00;5120521;28;20070;-72
2022/12/23 03:38:43;;;;;;;0.00;0.00;;;;;;;12.78;75.33;98236.50;5108385;28;20047;-73
2022/12/23 03:41:43;;;;;;;0.10;0.10;;;;;;;12.98;74.12;98207.59;5122723;28;20782;-72
2022/12/23 03:44:40;;;;;;;0.20;0.10;;;;;;;13.13;74.21;98243.09;5111924;28;20118;-72
2022/12/23 03:48:04;;;;;;;0.10;0.10;;;;;;;13.32;73.23;98239.16;5139536;28;20077;-73
2022/12/23 03:51:01;;;;;;;1.02;0.30;;;;;;;13.39;73.16;98248.88;5133779;28;20130;-72
2022/12/23 03:53:59;;;;;;;0.20;0.10;;;;;;;13.38;73.06;98251.75;5128397;28;20671;-73
2022/12/23 03:56:57;;;;;;;0.20;0.05;;;;;;;13.08;74.42;98240.97;5119811;28;20070;-73
2022/12/23 03:59:50;;;;;;;0.63;0.03;;;;;;;13.32;73.31;98247.13;5130219;28;20050;-72
2022/12/23 04:02:55;;;;;;;0.45;0.10;;;;;;;13.49;73.22;98263.78;5131402;28;20062;-72
2022/12/23 04:05:55;;;;;;;1.55;0.20;;;;;;;12.96;74.63;98274.31;5136478;28;20137;-72
2022/12/23 04:08:47;;;;;;;0.10;0.10;;;;;;;13.03;74.25;98271.78;5108462;28;20054;-73
2022/12/23 04:11:37;;;;;;;0.10;0.10;;;;;;;12.69;75.41;98273.81;5120086;28;20202;-72
2022/12/23 04:14:27;;;;;;;3.15;0.10;;;;;;;13.18;73.58;98267.34;5120157;28;20529;-73
2022/12/23 04:17:18;;;;;;;0.57;0.30;;;;;;;13.29;73.83;98269.63;5127137;28;20094;-73
2022/12/23 04:20:09;;;;;;;1.20;0.30;;;;;;;13.42;73.07;98269.00;5129807;28;20057;-73
2022/12/23 04:22:59;;;;;;;0.93;0.20;;;;;;;13.44;73.57;98269.63;5133373;28;20477;-73
2022/12/23 04:25:49;;;;;;;2.88;0.40;;;;;;;13.28;73.72;98270.63;5125986;28;20513;-73
2022/12/23 04:28:39;;;;;;;1.70;0.30;;;;;;;12.94;74.67;98263.00;5120014;28;20054;-72
2022/12/23 04:31:30;;;;;;;0.88;0.25;;;;;;;12.67;75.72;98275.81;5121807;28;20429;-73
2022/12/23 04:34:20;;;;;;;1.65;0.40;;;;;;;12.60;76.35;98274.03;5121467;28;20070;-73
2022/12/23 04:37:11;;;;;;;0.50;0.43;;;;;;;12.68;75.58;98272.16;5137812;28;20440;-73
2022/12/23 04:40:01;;;;;;;0.98;0.50;;;;;;;11.91;77.22;98225.97;5130689;28;20085;-73
2022/12/23 04:42:51;;;;;;;1.35;0.40;;;;;;;12.64;76.04;98281.47;5126902;28;20281;-73
2022/12/23 04:45:41;;;;;;;1.88;0.40;;;;;;;12.96;74.85;98282.31;5119451;29;20426;-73
2022/12/23 04:48:31;;;;;;;1.17;0.40;;;;;;;13.07;73.81;98291.69;5120602;28;20054;-73
2022/12/23 04:51:22;;;;;;;0.43;0.43;;;;;;;12.82;74.99;98293.72;5133742;28;20057;-73
2022/12/23 04:54:12;;;;;;;0.70;0.60;;;;;;;12.87;74.63;98292.16;5122614;28;20048;-73
2022/12/23 04:57:02;;;;;;;2.20;0.70;;;;;;;12.38;76.73;98292.41;5124956;28;20043;-73
2022/12/23 04:59:52;;;;;;;0.70;0.70;;;;;;;12.99;74.19;98289.94;5121609;28;20051;-73
2022/12/23 05:02:42;;;;;;;2.10;0.63;;;;;;;13.15;73.16;98295.16;5122030;28;20061;-73
2022/12/23 05:05:32;;;;;;;1.20;0.85;;;;;;;13.05;73.16;98302.53;5125673;28;20596;-73
2022/12/23 05:08:23;;;;;;;1.00;0.82;;;;;;;13.07;73.86;98302.34;5125962;28;20058;-73
2022/12/23 05:11:13;;;;;;;1.40;0.68;;;;;;;13.07;73.33;98300.50;5131554;28;20521;-73
2022/12/23 05:14:03;;;;;;;1.90;0.80;;;;;;;13.15;73.41;98313.78;5121039;29;20051;-73
2022/12/23 05:16:53;;;;;;;0.98;0.70;;;;;;;13.25;72.50;98294.94;5122300;29;20054;-73
2022/12/23 05:19:43;;;;;;;1.35;0.52;;;;;;;13.28;73.78;98312.41;5121744;28;20043;-73
2022/12/23 05:22:33;;;;;;;0.80;0.70;;;;;;;13.39;72.36;98315.47;5119332;28;20056;-73
2022/12/23 05:25:24;;;;;;;2.00;1.00;;;;;;;13.31;72.22;98320.84;5123304;29;20051;-73
2022/12/23 05:28:14;;;;;;;0.88;0.77;;;;;;;13.48;72.28;98312.75;5121487;28;20480;-73
2022/12/23 05:31:06;;;;;;;3.25;0.88;;;;;;;13.31;73.05;98325.31;5124699;28;20058;-73
2022/12/23 05:33:56;;;;;;;0.70;0.70;;;;;;;13.41;72.27;98323.28;5123925;28;20070;-73
2022/12/23 05:36:55;;;;;;;1.40;0.80;;;;;;;13.48;71.91;98312.75;5121514;28;20688;-73
2022/12/23 05:39:45;;;;;;;1.13;0.82;;;;;;;13.45;72.35;98311.25;5123135;28;20062;-73
2022/12/23 05:42:35;;;;;;;2.25;0.60;;;;;;;13.49;71.99;98312.56;5118909;28;20434;-73
2022/12/23 05:45:25;;;;;;;2.90;0.88;;;;;;;13.13;72.42;98301.66;5120579;28;20061;-73
2022/12/23 05:48:16;;;;;;;1.67;0.82;;;;;;;13.35;72.37;98330.16;5127142;28;20118;-73
2022/12/23 05:51:06;;;;;;;1.45;0.80;;;;;;;13.43;72.40;98337.22;5130380;28;20580;-73
2022/12/23 05:53:55;;;;;;;2.53;0.70;;;;;;;13.27;72.10;98319.53;5128105;28;20438;-73
2022/12/23 05:56:45;;;;;;;1.70;0.70;;;;;;;13.35;72.08;98345.28;5121022;28;20059;-73
2022/12/23 05:59:36;;;;;;;1.27;0.70;;;;;;;13.56;71.12;98350.78;5131443;28;20059;-73
2022/12/23 06:02:27;;;;;;;2.50;0.95;;;;;;;13.60;71.04;98337.94;5120194;28;20671;-73
2022/12/23 06:05:17;;;;;;;0.60;0.60;;;;;;;13.38;71.87;98340.44;5134876;28;20122;-73
2022/12/23 06:08:08;;;;;;;2.90;0.80;;;;;;;13.29;71.80;98316.72;5112971;28;20445;-73
2022/12/23 06:10:58;;;;;;;4.38;0.80;;;;;;;13.55;71.12;98341.13;5121331;28;20514;-73
2022/12/23 06:13:48;;;;;;;1.10;0.80;;;;;;;13.55;71.00;98346.47;5125271;28;20161;-73
2022/12/23 06:16:38;;;;;;;0.77;0.75;;;;;;;13.53;70.92;98355.63;5134742;28;20193;-73
2022/12/23 06:19:29;;;;;;;1.27;1.17;;;;;;;13.39;70.75;98350.06;5127455;28;20528;-73
2022/12/23 06:22:22;;;;;;;2.15;1.20;;;;;;;13.47;71.16;98349.19;5135461;28;20627;-73
2022/12/23 06:25:12;;;;;;;0.98;0.60;;;;;;;13.22;70.95;98329.88;5122498;28;20054;-73
2022/12/23 06:28:02;;;;;;;1.17;0.60;;;;;;;13.33;71.46;98363.28;5123111;28;20058;-73
2022/12/23 06:30:53;;;;;;;2.45;0.82;;;;;;;13.52;70.76;98364.63;5128793;28;20534;-73
2022/12/23 06:33:43;;;;;;;2.10;0.93;;;;;;;13.52;70.64;98360.13;5121827;28;20453;-73
2022/12/23 06:36:33;;;;;;;3.95;1.20;;;;;;;13.46;70.88;98354.69;5128484;28;20055;-73
2022/12/23 06:39:24;;;;;;;1.60;1.40;;;;;;;13.56;70.59;98363.28;5121177;28;20130;-73
2022/12/23 06:42:14;;;;;;;2.58;1.38;;;;;;;13.52;70.62;98360.13;5127007;28;20063;-73
2022/12/23 06:45:05;;;;;;;1.63;1.02;;;;;;;13.52;70.64;98361.97;5124750;28;20055;-74
2022/12/23 06:47:55;;;;;;;0.88;0.80;;;;;;;13.38;70.63;98353.75;5121682;28;20113;-73
2022/12/23 06:50:45;;;;;;;1.20;1.00;;;;;;;13.35;70.58;98361.28;5120329;28;20054;-73
2022/12/23 06:53:35;;;;;;;1.40;1.00;;;;;;;13.30;70.71;98358.28;5119008;28;20057;-74
2022/12/23 06:56:26;;;;;;;1.23;0.95;;;;;;;13.42;71.10;98372.88;5129528;28;20061;-74
2022/12/23 06:59:16;;;;;;;0.90;0.80;;;;;;;13.43;70.52;98377.19;5122075;28;20062;-73
2022/12/23 07:02:06;;;;;;;5.65;0.88;;;;;;;13.43;70.93;98376.34;5119363;28;20626;-73
2022/12/23 07:04:56;;;;;;;1.10;0.88;;;;;;;13.43;70.59;98379.84;5129854;28;20177;-73
2022/12/23 07:07:46;;;;;;;1.00;0.90;;;;;;;13.37;70.90;98376.03;5122905;28;20130;-76
2022/12/23 07:10:37;;;;;;;1.73;1.20;;;;;;;13.35;71.06;98386.06;5123609;28;20129;-73
2022/12/23 07:13:28;;;;;;;2.00;1.25;;;;;;;13.32;70.99;98367.78;5124133;28;20047;-72
2022/12/23 07:16:19;;;;;;;1.45;1.15;;;;;;;13.38;70.88;98385.72;5122859;28;20202;-72
2022/12/23 07:19:09;;;;;;;0.90;0.90;;;;;;;13.34;70.63;98376.41;5120142;28;20130;-71
2022/12/23 07:22:00;;;;;;;1.30;1.20;;;;;;;13.39;70.83;98383.88;5125035;28;20089;-71
2022/12/23 07:24:50;;;;;;;1.45;1.25;;;;;;;13.42;70.86;98388.84;5132705;28;20681;-71
2022/12/23 07:27:40;;;;;;;1.73;1.35;;;;;;;13.43;70.34;98379.84;5120355;28;20051;-70
2022/12/23 07:30:29;;;;;;;2.72;2.00;;;;;;;13.42;70.38;98382.69;5124478;29;20055;-72
2022/12/23 07:33:20;;;;;;;2.95;1.40;;;;;;;13.35;70.51;98380.72;5123836;28;20142;-71
2022/12/23 07:36:10;;;;;;;1.58;1.48;;;;;;;13.23;70.75;98370.63;5131365;28;20130;-72
2022/12/23 07:39:00;;;;;;;3.95;1.90;;;;;;;13.32;70.71;98396.22;5114755;28;20050;-70
2022/12/23 07:41:50;;;;;;;3.35;1.45;;;;;;;13.28;71.15;98390.44;5123877;29;20146;-72
2022/12/23 07:45:01;;;;;;;1.90;1.35;;;;;;;13.31;70.74;98378.56;5130028;28;20055;-71
2022/12/23 07:47:57;;;;;;;2.47;1.40;;;;;;;13.32;71.14;98383.75;5121235;28;20434;-71
2022/12/23 07:50:47;;;;;;;2.75;1.77;;;;;;;13.40;71.06;98386.34;5129454;28;20062;-72
2022/12/23 07:53:37;;;;;;;2.55;2.13;;;;;;;13.33;70.54;98393.38;5118610;28;20118;-71
2022/12/23 07:56:27;;;;;;;2.30;1.55;;;;;;;13.31;71.34;98382.09;5124351;29;20079;-71
2022/12/23 07:59:17;;;;;;;2.58;1.70;;;;;;;13.33;71.05;98393.38;5125145;28;20134;-71
2022/12/23 08:02:09;;;;;;;1.23;1.00;;;;;;;13.25;71.04;98384.63;5128609;28;20062;-71
2022/12/23 08:05:00;;;;;;;1.25;1.15;;;;;;;13.35;71.32;98403.88;5125068;28;20054;-71
2022/12/23 08:07:50;;;;;;;2.67;1.20;;;;;;;13.36;71.05;98408.19;5129245;28;20114;-71
2022/12/23 08:10:40;;;;;;;1.90;1.27;;;;;;;13.49;70.67;98410.28;5123262;28;20078;-71
2022/12/23 08:13:39;;;;;;;1.63;1.30;;;;;;;13.67;69.64;98425.94;5122500;28;20059;-71
2022/12/23 08:16:29;;;;;;;2.42;1.50;;;;;;;13.63;69.86;98420.97;5123109;28;20494;-70
2022/12/23 08:19:20;;;;;;;8.02;2.10;;;;;;;13.53;70.46;98419.56;5127900;28;20121;-70
2022/12/23 08:22:10;;;;;;;2.38;2.05;;;;;;;13.59;69.99;98419.69;5122929;28;20066;-72
2022/12/23 08:25:00;;;;;;;2.20;1.75;;;;;;;13.24;71.27;98398.91;5119108;28;20071;-72
2022/12/23 08:27:50;;;;;;;2.15;1.67;;;;;;;13.71;69.49;98421.91;5125339;28;21462;-72
2022/12/23 08:30:40;;;;;;;1.88;1.30;;;;;;;13.32;71.92;98418.34;5117534;28;20110;-71
2022/12/23 08:33:31;;;;;;;2.00;1.45;;;;;;;13.55;71.62;98423.72;5119836;28;20047;-74
2022/12/23 08:36:25;;;;;;;2.42;1.58;;;;;;;13.76;71.25;98422.22;5122623;28;20062;-74
2022/12/23 08:39:15;;;;;;;3.13;1.52;;;;;;;13.75;70.56;98416.06;5122058;28;20445;-73
2022/12/23 08:42:05;;;;;;;2.88;1.70;;;;;;;13.77;70.83;98411.38;5126992;28;20055;-73
2022/12/23 08:44:56;;;;;;;3.58;1.65;;;;;;;13.64;71.27;98395.16;5122332;29;20512;-73
2022/12/23 08:47:46;;;;;;;4.93;1.42;;;;;;;13.78;70.66;98401.56;5121913;28;20069;-73
2022/12/23 08:50:41;;;;;;;3.53;1.63;;;;;;;13.70;70.21;98369.66;5124821;28;20055;-73
2022/12/23 08:53:33;;;;;;;3.15;1.40;;;;;;;13.97;69.62;98394.91;5117216;28;20051;-73
2022/12/23 08:56:26;;;;;;;3.42;1.08;;;;;;;13.93;69.97;98398.94;5120363;28;20686;-73
2022/12/23 08:59:16;;;;;;;2.17;1.07;;;;;;;13.86;69.27;98398.84;5121646;28;20142;-73
2022/12/23 09:02:10;;;;;;;1.15;0.80;;;;;;;14.07;69.31;98420.31;5118875;29;20112;-73
2022/12/23 09:05:01;;;;;;;0.90;0.80;;;;;;;13.97;69.63;98406.41;5123953;29;20697;-74
2022/12/23 09:07:51;;;;;;;2.33;1.30;;;;;;;14.09;69.66;98406.78;5120889;28;20051;-74
2022/12/23 09:10:43;;;;;;;2.40;0.90;;;;;;;14.14;68.95;98423.09;5122489;29;20132;-74
2022/12/23 09:13:33;;;;;;;1.58;0.77;;;;;;;14.12;69.45;98418.94;5121352;29;20649;-74
2022/12/23 09:16:25;;;;;;;1.15;0.90;;;;;;;14.16;68.93;98421.06;5135931;28;20560;-74
2022/12/23 09:19:16;;;;;;;5.70;0.90;;;;;;;13.98;69.26;98415.25;5121570;28;20055;-74
2022/12/23 09:22:06;;;;;;;1.27;0.50;;;;;;;13.86;68.93;98409.50;5123631;29;20047;-73
2022/12/23 09:24:56;;;;;;;0.85;0.52;;;;;;;14.05;69.07;98422.31;5122704;29;20058;-75
2022/12/23 09:27:53;;;;;;;1.98;0.38;;;;;;;14.07;69.18;98422.13;5118660;28;20059;-73
2022/12/23 09:30:44;;;;;;;2.33;0.90;;;;;;;14.17;68.92;98406.75;5119432;28;20461;-73
2022/12/23 09:33:34;;;;;;;1.35;0.57;;;;;;;14.21;68.40;98407.19;5121139;28;20051;-74
2022/12/23 09:36:24;;;;;;;1.42;0.60;;;;;;;14.23;68.28;98395.31;5122346;29;20411;-71
2022/12/23 09:39:15;;;;;;;1.45;1.10;;;;;;;14.29;68.59;98399.94;5122886;28;20529;-72
2022/12/23 09:42:24;;;;;;;1.67;0.90;;;;;;;14.23;68.46;98406.00;5120852;29;20066;-72
2022/12/23 09:45:24;;;;;;;2.45;1.38;;;;;;;14.31;68.54;98389.94;5118835;28;20058;-72
2022/12/23 09:48:20;;;;;;;2.25;0.80;;;;;;;14.43;67.79;98374.28;5117706;28;20065;-72
2022/12/23 09:51:11;;;;;;;1.38;0.90;;;;;;;14.46;67.50;98391.75;5118026;28;20059;-72
2022/12/23 09:54:11;;;;;;;3.05;0.80;;;;;;;14.53;67.35;98382.03;5119026;28;20481;-73
2022/12/23 09:57:21;;;;;;;0.90;0.80;;;;;;;14.46;68.63;98389.91;5120230;28;20686;-69
2022/12/23 10:00:18;;;;;;;1.20;0.55;;;;;;;14.46;69.12;98378.44;5127380;28;20049;-74
2022/12/23 10:03:21;;;;;;;0.77;0.70;;;;;;;14.53;68.35;98384.72;5124488;28;20082;-71
2022/12/23 10:06:32;;;;;;;1.05;0.80;;;;;;;14.52;68.82;98386.56;5126452;28;20043;-73
2022/12/23 10:09:22;;;;;;;3.15;0.88;;;;;;;14.52;68.55;98373.22;5117759;28;20051;-73
2022/12/23 10:12:22;;;;;;;1.20;1.08;;;;;;;14.46;68.77;98360.56;5125679;28;20448;-72
2022/12/23 10:15:36;;;;;;;4.53;1.23;;;;;;;14.60;68.20;98366.13;5121866;28;20190;-73
2022/12/23 10:18:52;;;;;;;3.65;1.00;;;;;;;14.59;68.49;98370.63;5116868;28;20126;-72
2022/12/23 10:21:59;;;;;;;6.35;1.85;;;;;;;14.57;67.94;98362.84;5131970;28;20089;-74
2022/12/23 10:24:50;;;;;;;12.57;6.95;;;;;;;14.59;67.39;98362.63;5120258;29;20062;-72
2022/12/23 10:27:42;;;;;;;8.88;2.28;;;;;;;14.66;67.11;98362.72;5120790;28;20150;-71
2022/12/23 10:30:39;;;;;;;3.13;2.20;;;;;;;14.56;67.77;98355.81;5123338;28;20530;-73
2022/12/23 10:34:10;;;;;;;3.70;2.40;;;;;;;14.62;68.18;98362.25;5120727;28;20134;-71
2022/12/23 10:37:15;;;;;;;2.63;2.33;;;;;;;14.67;67.28;98359.03;5111086;29;20070;-72
2022/12/23 10:40:18;;;;;;;5.55;2.38;;;;;;;14.66;68.04;98355.53;5116526;29;20059;-72
2022/12/23 10:43:17;;;;;;;2.20;1.60;;;;;;;14.70;67.67;98348.84;5122897;29;20058;-72
2022/12/23 10:46:21;;;;;;;2.08;1.65;;;;;;;14.75;67.72;98340.28;5117113;29;20054;-72
2022/12/23 10:49:30;;;;;;;;;;;;;;;14.60;67.94;98339.44;5123079;28;20568;-72
2022/12/23 10:52:25;;;;;;;5.55;2.00;;;;;;;14.53;68.03;98315.34;5128394;23;20026;-86
2022/12/23 10:55:24;;;;;;;7.35;2.35;;;;;;;14.56;68.57;98310.47;5149957;28;20057;-85
2022/12/23 10:58:22;;;;;;;4.18;2.05;;;;;;;14.47;68.58;98308.91;5164860;28;20526;-85
2022/12/23 11:01:15;;;;;;;3.92;2.10;;;;;;;14.54;69.25;98309.84;5145747;28;20100;-85
2022/12/23 11:04:18;;;;;;;5.00;2.65;;;;;;;14.37;69.18;98284.38;5147589;28;20059;-84
2022/12/23 11:07:12;;;;;;;6.93;2.80;;;;;;;14.58;69.29;98315.63;5161242;23;20505;-70
2022/12/23 11:10:27;;;;;;;8.52;3.20;;;;;;;14.75;68.47;98305.56;5159805;28;20463;-72
2022/12/23 11:13:36;;;;;;;8.25;2.85;;;;;;;14.40;69.94;98307.16;5146509;28;20058;-71
2022/12/23 11:16:27;;;;;;;9.57;3.40;;;;;;;14.47;70.16;98300.06;5137412;28;20075;-71
2022/12/23 11:19:17;;;;;;;7.22;3.40;;;;;;;14.47;69.88;98290.25;5135219;28;20114;-72
2022/12/23 11:22:24;;;;;;;6.20;2.90;;;;;;;13.99;70.67;98247.13;5141860;28;20639;-71
2022/12/23 11:25:34;;;;;;;6.90;3.13;;;;;;;14.09;71.77;98290.31;5143971;28;20061;-71
2022/12/23 11:28:25;;;;;;;5.03;2.92;;;;;;;14.38;70.47;98287.84;5139094;28;20134;-72
2022/12/23 11:31:25;;;;;;;5.13;3.38;;;;;;;14.44;70.66;98268.44;5135035;28;20043;-71
2022/12/23 11:34:21;;;;;;;5.32;3.30;;;;;;;14.44;70.80;98273.78;5129819;28;20059;-71
2022/12/23 11:37:33;;;;;;;8.85;3.38;;;;;;;14.42;70.79;98270.47;5141935;28;20058;-71
2022/12/23 11:40:36;;;;;;;6.72;3.33;;;;;;;14.38;71.26;98247.84;5143741;28;20457;-72
2022/12/23 11:43:27;;;;;;;5.75;3.30;;;;;;;14.25;71.70;98257.31;5136504;28;20066;-72
2022/12/23 11:46:27;;;;;;;4.72;3.30;;;;;;;14.33;71.72;98259.88;5142615;28;20057;-71
2022/12/23 11:49:47;;;;;;;10.38;3.25;;;;;;;14.32;71.53;98258.22;5136255;28;20111;-72
2022/12/23 11:52:49;;;;;;;5.35;3.05;;;;;;;14.43;71.29;98246.25;5141650;28;20055;-72
2022/12/23 11:56:03;;;;;;;6.85;3.45;;;;;;;14.37;71.41;98244.34;5139475;28;20069;-72
2022/12/23 11:59:05;;;;;;;4.00;3.05;;;;;;;14.18;72.12;98213.75;5139954;28;20047;-73
2022/12/23 12:01:58;;;;;;;6.03;3.22;;;;;;;14.46;70.73;98224.53;5139463;28;20222;-71
2022/12/23 12:04:56;;;;;;;3.92;2.65;;;;;;;14.10;72.33;98220.03;5141246;28;20546;-72
2022/12/23 12:07:48;;;;;;;4.50;2.80;;;;;;;13.86;73.88;98214.97;5148893;28;20517;-71
2022/12/23 12:10:39;;;;;;;7.53;2.97;;;;;;;13.98;72.64;98202.84;5142981;28;20102;-71
2022/12/23 12:13:37;;;;;;;6.55;3.08;;;;;;;13.96;72.96;98199.53;5138716;28;20449;-72
2022/12/23 12:17:01;;;;;;;6.38;3.65;;;;;;;14.01;73.24;98197.13;5141032;28;20137;-70
2022/12/23 12:19:57;;;;;;;4.73;3.03;;;;;;;13.97;73.55;98189.69;5137873;28;20066;-70
2022/12/23 12:22:54;;;;;;;6.47;3.22;;;;;;;13.90;73.87;98180.78;5140525;28;20181;-70
2022/12/23 12:25:50;;;;;;;6.00;3.00;;;;;;;13.81;74.58;98175.56;5139638;28;20053;-72
2022/12/23 12:28:43;;;;;;;5.68;3.13;;;;;;;13.96;73.59;98175.53;5157300;28;20501;-71
2022/12/23 12:31:41;;;;;;;5.88;2.80;;;;;;;13.96;72.91;98159.53;5153290;28;20148;-70
2022/12/23 12:34:44;;;;;;;9.40;3.15;;;;;;;13.77;74.71;98163.59;5136466;28;20109;-71
2022/12/23 12:37:56;;;;;;;7.63;3.05;;;;;;;13.76;75.28;98163.78;5143268;28;20117;-70
2022/12/23 12:40:51;;;;;;;4.53;2.83;;;;;;;13.78;74.83;98164.44;5140806;28;20185;-71
2022/12/23 12:44:04;;;;;;;6.35;3.28;;;;;;;13.91;74.03;98153.97;5139260;28;20081;-68
2022/12/23 12:47:05;;;;;;;5.53;2.92;;;;;;;13.71;74.24;98142.19;5137641;28;20083;-70
2022/12/23 12:50:22;;;;;;;5.85;3.15;;;;;;;13.51;75.09;98137.44;5137100;28;20113;-70
2022/12/23 12:53:20;;;;;;;6.75;3.13;;;;;;;13.83;75.17;98154.03;5134861;28;20419;-68
2022/12/23 12:56:25;;;;;;;6.90;3.28;;;;;;;13.89;74.33;98142.66;5136270;28;20055;-70
2022/12/23 12:59:21;;;;;;;6.05;3.28;;;;;;;13.88;74.25;98127.69;5139326;28;20057;-70
2022/12/23 13:02:33;;;;;;;7.32;3.60;;;;;;;14.09;74.04;98118.91;5142925;28;20520;-71
2022/12/23 13:05:48;;;;;;;7.32;3.85;;;;;;;14.07;72.98;98104.91;5144107;28;20067;-71
2022/12/23 13:09:07;;;;;;;4.35;3.05;;;;;;;14.12;73.58;98110.53;5142507;28;20077;-69
2022/12/23 13:12:34;;;;;;;5.40;2.85;;;;;;;13.83;74.29;98114.06;5140714;28;20057;-70
2022/12/23 13:16:12;;;;;;;4.97;2.88;;;;;;;13.85;74.47;98107.56;5137962;28;20061;-69
2022/12/23 13:19:14;;;;;;;5.63;3.38;;;;;;;13.57;74.87;98094.06;5136984;28;20062;-73
2022/12/23 13:22:15;;;;;;;5.85;3.85;;;;;;;13.36;75.67;98094.00;5138587;28;20105;-70
2022/12/23 13:25:17;;;;;;;11.32;4.63;;;;;;;13.78;75.42;98121.81;5136289;28;20058;-72
2022/12/23 13:28:19;;;;;;;8.38;4.10;;;;;;;13.86;75.04;98117.19;5140330;28;20137;-70
2022/12/23 13:31:31;;;;;;;8.65;5.00;;;;;;;13.83;74.64;98100.75;5143769;28;20424;-68
2022/12/23 13:34:39;;;;;;;8.65;5.15;;;;;;;13.88;75.30;98093.03;5143885;28;20416;-68
2022/12/23 13:37:39;;;;;;;8.18;4.63;;;;;;;13.95;74.60;98088.59;5144296;28;20059;-70
2022/12/23 13:40:36;;;;;;;11.57;4.50;;;;;;;13.93;74.65;98093.28;5146040;28;20055;-71
2022/12/23 13:43:41;;;;;;;8.55;3.97;;;;;;;13.79;74.64;98071.00;5137609;28;20201;-69
2022/12/23 13:46:45;;;;;;;5.95;3.72;;;;;;;13.99;74.36;98081.88;5145751;28;20132;-68
2022/12/23 13:49:39;;;;;;;8.13;4.28;;;;;;;14.12;73.84;98077.72;5141663;28;20046;-70
2022/12/23 13:53:00;;;;;;;10.45;4.18;;;;;;;14.07;74.18;98072.94;5145989;28;20056;-69
2022/12/23 13:55:59;;;;;;;9.07;4.28;;;;;;;13.84;74.71;98078.41;5147555;28;20082;-69
2022/12/23 13:58:50;;;;;;;8.80;4.72;;;;;;;13.87;74.69;98080.69;5140588;28;20054;-70
2022/12/23 14:01:39;;;;;;;5.40;3.78;;;;;;;14.00;75.17;98064.88;5139233;28;20085;-70
2022/12/23 14:04:36;;;;;;;11.50;4.57;;;;;;;14.09;74.36;98063.75;5142892;28;20069;-71
2022/12/23 14:07:31;;;;;;;9.85;4.60;;;;;;;14.10;74.74;98061.91;5143927;28;20058;-71
2022/12/23 14:10:23;;;;;;;6.40;3.80;;;;;;;14.04;74.09;98060.84;5144705;28;20559;-72
2022/12/23 14:13:16;;;;;;;5.43;3.47;;;;;;;14.24;73.48;98054.88;5138655;28;20054;-72
2022/12/23 14:16:20;;;;;;;7.07;3.33;;;;;;;13.78;74.04;98016.06;5135988;28;20047;-70
2022/12/23 14:19:17;;;;;;;8.05;3.53;;;;;;;14.27;73.93;98055.31;5141844;28;20049;-70